createdAt,value
2024-04-01T00:05:05.099Z,8.57
2024-04-01T00:10:10.751Z,8.53
2024-04-01T00:15:17.728Z,7.33
2024-04-01T00:20:23.771Z,7.63
2024-04-01T00:25:29.356Z,8.53
2024-04-01T00:30:36.219Z,8.63
2024-04-01T00:35:42.243Z,8.03
2024-04-01T00:40:47.712Z,8.20
2024-04-01T00:45:53.302Z,8.63
2024-04-01T00:50:59.721Z,7.90
2024-04-01T00:56:05.938Z,8.17
2024-04-01T01:01:12.002Z,8.37
2024-04-01T01:06:20.550Z,8.20
2024-04-01T01:11:26.291Z,8.20
2024-04-01T01:16:31.683Z,8.97
2024-04-01T01:21:37.204Z,9.30
2024-04-01T01:26:42.536Z,9.20
2024-04-01T01:31:47.927Z,7.93
2024-04-01T01:36:53.502Z,8.30
2024-04-01T01:41:59.124Z,8.20
2024-04-01T01:47:04.844Z,9.07
2024-04-01T01:52:10.236Z,9.97
2024-04-01T01:57:16.553Z,8.23
2024-04-01T02:02:22.873Z,7.77
2024-04-01T02:07:28.186Z,9.23
2024-04-01T02:12:33.515Z,7.23
2024-04-01T02:17:39.104Z,9.33
2024-04-01T02:22:45.186Z,8.53
2024-04-01T02:27:50.922Z,9.77
2024-04-01T02:32:56.469Z,8.67
2024-04-01T02:38:02.173Z,8.70
2024-04-01T02:43:08.552Z,9.03
2024-04-01T02:48:14.447Z,9.17
2024-04-01T02:53:19.881Z,8.87
2024-04-01T02:58:25.543Z,10.43
2024-04-01T03:03:30.937Z,9.90
2024-04-01T03:08:36.462Z,9.53
2024-04-01T03:13:42.818Z,9.27
2024-04-01T03:18:48.519Z,9.20
2024-04-01T03:23:54.187Z,7.63
2024-04-01T03:28:59.663Z,9.77
2024-04-01T03:34:04.995Z,7.90
2024-04-01T03:39:10.630Z,9.37
2024-04-01T03:44:16.112Z,9.00
2024-04-01T03:49:21.385Z,7.53
2024-04-01T03:54:26.927Z,8.47
2024-04-01T03:59:32.302Z,9.07
2024-04-01T04:04:38.266Z,7.57
2024-04-01T04:09:43.716Z,9.37
2024-04-01T04:14:49.266Z,9.00
2024-04-01T04:19:54.512Z,8.47
2024-04-01T04:24:59.892Z,7.43
2024-04-01T04:30:05.848Z,9.37
2024-04-01T04:35:13.060Z,9.87
2024-04-01T04:40:18.738Z,9.87
2024-04-01T04:45:24.054Z,10.87
2024-04-01T04:50:29.419Z,8.80
2024-04-01T04:55:35.184Z,9.50
2024-04-01T05:00:40.572Z,9.00
2024-04-01T05:05:46.007Z,8.17
2024-04-01T05:10:52.807Z,8.27
2024-04-01T05:15:59.802Z,10.57
2024-04-01T05:21:05.933Z,9.47
2024-04-01T05:26:11.247Z,8.10
2024-04-01T05:31:16.696Z,7.63
2024-04-01T05:36:23.878Z,11.17
2024-04-01T05:41:29.360Z,7.93
2024-04-01T05:46:34.820Z,7.67
2024-04-01T05:51:40.303Z,6.87
2024-04-01T05:56:45.849Z,8.83
2024-04-01T06:01:51.298Z,8.80
2024-04-01T06:06:56.821Z,8.17
2024-04-01T06:12:02.258Z,8.13
2024-04-01T06:17:08.081Z,9.43
2024-04-01T06:22:13.540Z,9.20
2024-04-01T06:27:19.202Z,7.93
2024-04-01T06:32:24.572Z,8.00
2024-04-01T06:37:31.493Z,8.27
2024-04-01T06:42:36.887Z,7.87
2024-04-01T06:47:42.250Z,9.47
2024-04-01T06:52:47.804Z,9.50
2024-04-01T06:57:53.548Z,9.47
2024-04-01T07:02:59.466Z,9.00
2024-04-01T07:08:05.572Z,8.67
2024-04-01T07:13:11.000Z,9.00
2024-04-01T07:18:16.379Z,9.83
2024-04-01T07:23:22.285Z,9.83
2024-04-01T07:28:27.690Z,9.57
2024-04-01T07:33:33.450Z,11.83
2024-04-01T07:38:38.909Z,9.93
2024-04-01T07:43:44.403Z,9.27
2024-04-01T07:48:49.836Z,9.93
2024-04-01T07:53:55.289Z,8.80
2024-04-01T07:59:03.067Z,11.07
2024-04-01T08:04:08.125Z,10.60
2024-04-01T08:09:13.822Z,13.83
2024-04-01T08:14:19.581Z,11.47
2024-04-01T08:19:26.704Z,11.73
2024-04-01T08:24:32.120Z,12.23
2024-04-01T08:29:37.495Z,12.13
2024-04-01T08:34:42.928Z,11.17
2024-04-01T08:39:49.070Z,13.60
2024-04-01T08:44:55.106Z,12.53
2024-04-01T08:50:03.625Z,11.97
2024-04-01T08:55:09.298Z,13.43
2024-04-01T09:00:16.259Z,12.47
2024-04-01T09:05:22.262Z,11.23
2024-04-01T09:10:27.858Z,15.40
2024-04-01T09:15:33.827Z,12.67
2024-04-01T09:20:39.570Z,11.57
2024-04-01T09:25:45.103Z,12.93
2024-04-01T09:30:50.535Z,11.73
2024-04-01T09:35:56.487Z,11.57
2024-04-01T09:41:02.333Z,12.37
2024-04-01T09:46:07.910Z,11.10
2024-04-01T09:51:15.972Z,13.37
2024-04-01T10:02:43.695Z,11.10
2024-04-01T10:08:20.122Z,11.27
2024-04-01T10:13:59.423Z,11.63
2024-04-01T10:19:27.958Z,11.87
2024-04-01T10:24:56.926Z,12.47
2024-04-01T10:36:21.057Z,12.50
2024-04-01T10:41:42.977Z,12.67
2024-04-01T10:47:12.985Z,13.17
2024-04-01T10:52:53.927Z,14.47
2024-04-01T10:58:09.918Z,12.50
2024-04-01T11:03:53.034Z,14.97
2024-04-01T11:09:20.975Z,12.67
2024-04-01T11:14:27.161Z,13.33
2024-04-01T11:20:01.753Z,14.80
2024-04-01T11:25:13.653Z,13.03
2024-04-01T11:30:26.739Z,13.70
2024-04-01T11:35:46.617Z,13.57
2024-04-01T11:40:53.259Z,13.80
2024-04-01T11:46:01.331Z,11.77
2024-04-01T11:51:07.971Z,14.93
2024-04-01T11:56:13.438Z,12.70
2024-04-01T12:01:18.888Z,12.53
2024-04-01T12:06:26.490Z,12.90
2024-04-01T12:11:33.809Z,14.37
2024-04-01T12:16:39.454Z,12.53
2024-04-01T12:21:49.280Z,13.93
2024-04-01T12:26:55.354Z,13.20
2024-04-01T12:32:01.216Z,13.17
2024-04-01T12:37:08.610Z,14.13
2024-04-01T12:42:14.440Z,12.93
2024-04-01T12:47:20.478Z,13.60
2024-04-01T12:52:28.909Z,11.83
2024-04-01T12:57:49.073Z,13.70
2024-04-01T13:03:26.314Z,12.47
2024-04-01T13:08:37.562Z,11.87
2024-04-01T13:13:46.993Z,13.47
2024-04-01T13:18:55.465Z,12.13
2024-04-01T13:24:03.845Z,12.97
2024-04-01T13:29:14.146Z,12.97
2024-04-01T13:34:28.004Z,11.47
2024-04-01T13:39:40.023Z,12.17
2024-04-01T13:44:50.081Z,11.23
2024-04-01T13:50:07.062Z,10.97
2024-04-01T13:55:16.255Z,12.03
2024-04-01T14:00:25.254Z,10.47
2024-04-01T14:05:51.529Z,11.57
2024-04-01T14:11:01.458Z,11.97
2024-04-01T14:16:10.149Z,14.33
2024-04-01T14:21:17.539Z,12.27
2024-04-01T14:26:23.106Z,15.17
2024-04-01T14:31:28.830Z,13.13
2024-04-01T14:36:36.788Z,15.53
2024-04-01T14:41:43.719Z,14.73
2024-04-01T14:46:49.170Z,14.27
2024-04-01T14:51:55.410Z,13.83
2024-04-01T14:57:01.293Z,12.93
2024-04-01T15:02:07.326Z,15.23
2024-04-01T15:07:14.865Z,12.50
2024-04-01T15:12:21.155Z,12.53
2024-04-01T15:17:27.145Z,13.00
2024-04-01T15:22:33.129Z,12.83
2024-04-01T15:27:39.074Z,11.10
2024-04-01T15:32:44.896Z,13.00
2024-04-01T15:37:50.420Z,11.83
2024-04-01T15:42:57.422Z,12.33
2024-04-01T15:48:02.809Z,13.30
2024-04-01T15:53:08.893Z,20.53
2024-04-01T15:58:15.694Z,17.53
2024-04-01T16:03:21.977Z,13.13
2024-04-01T16:08:28.470Z,12.27
2024-04-01T16:13:38.326Z,14.23
2024-04-01T16:18:46.864Z,13.43
2024-04-01T16:23:55.890Z,12.67
2024-04-01T16:29:04.443Z,11.67
2024-04-01T16:34:10.048Z,14.43
2024-04-01T16:39:16.286Z,13.77
2024-04-01T16:44:21.729Z,13.13
2024-04-01T16:49:27.048Z,11.80
2024-04-01T16:54:32.855Z,14.20
2024-04-01T16:59:40.063Z,14.90
2024-04-01T17:04:46.041Z,13.00
2024-04-01T17:09:51.656Z,13.00
2024-04-01T17:14:57.113Z,12.80
2024-04-01T17:20:05.650Z,12.40
2024-04-01T17:25:13.257Z,11.77
2024-04-01T17:30:19.223Z,13.70
2024-04-01T17:35:24.838Z,13.23
2024-04-01T17:40:30.477Z,12.70
2024-04-01T17:45:36.165Z,11.63
2024-04-01T17:50:41.547Z,13.30
2024-04-01T17:55:47.345Z,12.13
2024-04-01T18:00:53.219Z,13.17
2024-04-01T18:06:00.865Z,13.53
2024-04-01T18:11:07.535Z,13.20
2024-04-01T18:16:13.232Z,12.83
2024-04-01T18:21:20.181Z,12.67
2024-04-01T18:26:27.210Z,13.73
2024-04-01T18:31:33.025Z,14.03
2024-04-01T18:36:38.543Z,13.67
2024-04-01T18:41:44.871Z,13.60
2024-04-01T18:46:50.565Z,12.70
2024-04-01T18:51:59.058Z,15.00
2024-04-01T18:57:07.343Z,13.93
2024-04-01T19:02:12.653Z,16.80
2024-04-01T19:07:18.083Z,14.83
2024-04-01T19:12:23.387Z,15.17
2024-04-01T19:17:28.761Z,14.63
2024-04-01T19:22:34.284Z,14.97
2024-04-01T19:27:42.180Z,16.17
2024-04-01T19:32:47.568Z,15.53
2024-04-01T19:37:53.468Z,15.97
2024-04-01T19:43:00.233Z,16.83
2024-04-01T19:48:06.678Z,14.70
2024-04-01T19:53:14.706Z,15.10
2024-04-01T19:58:21.738Z,17.10
2024-04-01T20:03:27.109Z,16.03
2024-04-01T20:08:32.777Z,15.40
2024-04-01T20:13:38.311Z,15.13
2024-04-01T20:18:44.348Z,14.83
2024-04-01T20:23:49.759Z,15.03
2024-04-01T20:28:55.103Z,15.57
2024-04-01T20:34:01.521Z,15.17
2024-04-01T20:39:07.401Z,14.97
2024-04-01T20:44:14.298Z,15.63
2024-04-01T20:49:20.843Z,14.70
2024-04-01T20:54:29.546Z,16.63
2024-04-01T20:59:35.543Z,14.93
2024-04-01T21:04:40.883Z,16.33
2024-04-01T21:09:46.310Z,15.03
2024-04-01T21:14:51.755Z,14.40
2024-04-01T21:19:57.286Z,15.70
2024-04-01T21:25:02.643Z,14.00
2024-04-01T21:30:09.596Z,15.30
2024-04-01T21:35:16.623Z,16.73
2024-04-01T21:40:24.495Z,15.30
2024-04-01T21:45:30.004Z,16.27
2024-04-01T21:50:35.572Z,16.63
2024-04-01T21:55:41.302Z,14.73
2024-04-01T22:00:46.715Z,15.43
2024-04-01T22:05:52.277Z,15.60
2024-04-01T22:10:58.115Z,15.63
2024-04-01T22:16:03.447Z,15.40
2024-04-01T22:21:09.236Z,15.30
2024-04-01T22:26:14.516Z,14.27
2024-04-01T22:31:19.953Z,13.53
2024-04-01T22:36:25.414Z,17.07
2024-04-01T22:41:30.769Z,17.77
2024-04-01T22:46:36.126Z,15.97
2024-04-01T22:51:41.515Z,16.67
2024-04-01T22:56:47.067Z,17.40
2024-04-01T23:01:53.005Z,15.13
2024-04-01T23:06:58.474Z,15.30
2024-04-01T23:12:04.156Z,14.53
2024-04-01T23:17:09.739Z,12.07
2024-04-01T23:22:15.275Z,10.07
2024-04-01T23:27:20.796Z,10.13
2024-04-01T23:32:28.336Z,11.30
2024-04-01T23:37:34.947Z,8.73
2024-04-01T23:42:40.390Z,7.93
2024-04-01T23:47:47.199Z,7.50
2024-04-01T23:52:52.523Z,7.77
2024-04-01T23:57:57.827Z,6.93
